Time;durP1;ratioP1;P1;durP2;ratioP2;P2;SDS_P1;SDS_P2;PMS_P1;PMS_P2;Temp;Humidity;BMP_temperature;BMP_pressure;BME280_temperature;BME280_humidity;BME280_pressure;Samples;Min_cycle;Max_cycle;Signal;HPM_P1;HPM_P2
2021/07/19 00:03:42;;;;;;;16.93;9.05;;;;;;;20.68;67.65;100735.58;4831136;60;1142834;-83
2021/07/19 00:08:48;;;;;;;14.90;9.40;;;;;;;20.80;68.02;100729.27;4824098;60;1140944;-81
2021/07/19 00:13:54;;;;;;;13.20;9.13;;;;;;;20.96;68.15;100736.70;4813878;59;1140856;-83
2021/07/19 00:19:01;;;;;;;11.93;9.60;;;;;;;21.02;67.89;100745.91;4813286;59;1140969;-80
2021/07/19 00:24:06;;;;;;;13.08;9.80;;;;;;;20.84;67.44;100748.91;4813058;59;1140844;-83
2021/07/19 00:29:13;;;;;;;13.35;9.50;;;;;;;20.62;67.96;100742.50;4814400;59;1141012;-83
2021/07/19 00:34:19;;;;;;;13.95;8.68;;;;;;;20.55;68.24;100741.56;4813542;59;1140792;-83
2021/07/19 00:39:25;;;;;;;11.73;8.83;;;;;;;20.42;68.44;100756.09;4813442;59;1141115;-80
2021/07/19 00:44:32;;;;;;;16.07;8.78;;;;;;;20.47;68.71;100758.25;4816131;59;1140948;-82
2021/07/19 00:49:39;;;;;;;18.82;9.13;;;;;;;20.43;68.95;100759.11;4814819;59;1140864;-83
2021/07/19 00:54:47;;;;;;;11.43;8.30;;;;;;;20.42;68.83;100761.97;4815127;59;1140879;-84
2021/07/19 00:59:54;;;;;;;11.63;9.10;;;;;;;20.28;68.72;100758.98;4815732;59;1140969;-82
2021/07/19 01:05:03;;;;;;;12.90;8.88;;;;;;;20.13;68.90;100754.53;4813158;59;1140810;-83
2021/07/19 01:10:22;;;;;;;9.18;8.05;;;;;;;20.11;69.34;100763.27;4812055;59;1141080;-80
2021/07/19 01:15:28;;;;;;;16.10;8.95;;;;;;;20.10;69.63;100767.80;4808986;59;1138934;-84
2021/07/19 01:20:45;;;;;;;10.82;8.18;;;;;;;20.21;69.86;100766.56;4808402;60;1141012;-82
2021/07/19 01:26:10;;;;;;;15.80;9.20;;;;;;;20.30;69.78;100769.05;4808213;60;1141016;-82
2021/07/19 01:31:25;;;;;;;13.53;9.65;;;;;;;20.30;69.68;100758.81;4809173;60;1140766;-82
2021/07/19 01:36:36;;;;;;;20.75;9.90;;;;;;;20.27;69.37;100766.72;4810824;58;1140978;-82
2021/07/19 01:41:51;;;;;;;12.73;8.50;;;;;;;20.23;69.72;100758.67;4809559;59;1141175;-83
2021/07/19 01:47:00;;;;;;;12.50;8.64;;;;;;;20.27;69.96;100754.63;4810630;60;1140913;-82
2021/07/19 01:52:08;;;;;;;18.62;9.33;;;;;;;20.16;69.32;100755.53;4810871;60;1141042;-80
2021/07/19 01:57:15;;;;;;;10.43;7.78;;;;;;;19.89;69.08;100758.98;4810632;60;1140864;-83
2021/07/19 02:02:24;;;;;;;13.08;8.90;;;;;;;19.75;69.53;100765.07;4809860;60;1141241;-84
2021/07/19 02:07:33;;;;;;;13.10;7.85;;;;;;;19.48;70.02;100760.08;4762092;60;1141093;-82
2021/07/19 02:12:41;;;;;;;11.10;8.40;;;;;;;19.36;70.86;100760.11;4739157;59;1141142;-81
2021/07/19 02:17:53;;;;;;;12.20;8.47;;;;;;;19.47;71.57;100758.41;4625226;61;1140983;-81
2021/07/19 02:23:03;;;;;;;11.03;7.70;;;;;;;19.61;71.69;100763.09;4679304;61;1141081;-80
2021/07/19 02:28:15;;;;;;;15.25;9.60;;;;;;;19.75;71.49;100772.28;4618944;61;1141331;-80
2021/07/19 02:33:22;;;;;;;11.63;8.93;;;;;;;19.83;71.26;100773.62;4626491;62;1141162;-82
2021/07/19 02:38:30;;;;;;;13.03;8.60;;;;;;;19.91;71.31;100777.59;4625916;62;1140940;-84
2021/07/19 02:43:41;;;;;;;10.90;8.65;;;;;;;19.97;71.31;100773.73;4628173;62;1140996;-81
2021/07/19 02:48:53;;;;;;;12.97;7.50;;;;;;;19.95;71.10;100775.75;4640435;62;1141002;-80
2021/07/19 02:54:01;;;;;;;13.08;7.12;;;;;;;19.79;70.49;100783.02;4738053;60;1140956;-83
2021/07/19 02:59:07;;;;;;;14.58;8.05;;;;;;;19.48;70.79;100786.41;4745899;59;1140822;-84
2021/07/19 03:04:14;;;;;;;15.88;8.63;;;;;;;19.17;71.51;100788.95;4705764;61;1140890;-83
2021/07/19 03:09:21;;;;;;;13.40;8.68;;;;;;;19.03;72.05;100790.12;4595849;62;1140745;-82
2021/07/19 03:14:31;;;;;;;14.23;8.33;;;;;;;19.13;72.98;100792.95;4668915;62;1141054;-84
2021/07/19 03:19:41;;;;;;;20.02;8.30;;;;;;;19.31;73.05;100792.79;4785909;60;1140892;-81
2021/07/19 03:24:50;;;;;;;10.48;6.90;;;;;;;19.45;72.94;100800.16;4732619;59;1141040;-80
2021/07/19 03:29:59;;;;;;;10.15;6.78;;;;;;;19.36;72.49;100793.63;4779054;59;1141100;-84
2021/07/19 03:35:09;;;;;;;10.85;7.10;;;;;;;19.18;72.73;100805.88;4732653;59;1140884;-82
2021/07/19 03:40:22;;;;;;;8.75;6.70;;;;;;;19.04;73.17;100808.72;4781197;60;1140972;-81
2021/07/19 03:45:31;;;;;;;12.93;7.67;;;;;;;18.97;73.91;100817.08;4731396;60;1138798;-83
2021/07/19 03:50:38;;;;;;;8.43;7.10;;;;;;;18.90;74.26;100816.08;4731428;61;1140905;-82
2021/07/19 03:55:46;;;;;;;11.95;7.15;;;;;;;18.95;74.80;100816.40;4729922;61;1138757;-84
2021/07/19 04:00:54;;;;;;;9.53;6.75;;;;;;;18.90;75.21;100814.23;4814830;60;1141119;-80
2021/07/19 04:06:03;;;;;;;10.98;6.35;;;;;;;18.86;75.55;100818.75;4822512;60;1138740;-82
2021/07/19 04:11:19;;;;;;;20.10;6.80;;;;;;;18.75;75.65;100805.67;4792155;60;1140965;-81
2021/07/19 04:16:27;;;;;;;12.23;6.75;;;;;;;18.77;75.75;100792.45;4666976;61;1141035;-84
2021/07/19 04:21:35;;;;;;;12.45;6.55;;;;;;;18.79;76.04;100816.41;4666990;61;1141132;-82
2021/07/19 04:26:41;;;;;;;10.88;7.37;;;;;;;18.75;76.24;100807.02;4660003;62;1140992;-83
2021/07/19 04:31:54;;;;;;;15.57;7.13;;;;;;;18.74;76.29;100802.66;4695531;61;1141074;-81
2021/07/19 04:37:08;;;;;;;10.68;6.10;;;;;;;18.70;76.41;100802.64;4714093;61;1141070;-83
2021/07/19 04:42:15;;;;;;;14.00;7.12;;;;;;;18.73;76.74;100809.02;4713096;61;1140877;-82
2021/07/19 04:47:21;;;;;;;13.53;6.62;;;;;;;18.68;76.90;100814.86;4709518;61;1140957;-82
2021/07/19 04:52:27;;;;;;;12.25;6.42;;;;;;;18.57;77.13;100815.14;4708020;60;1140856;-83
2021/07/19 04:57:33;;;;;;;10.50;6.40;;;;;;;18.50;77.64;100815.44;4729859;61;1140880;-80
2021/07/19 05:02:41;;;;;;;7.30;5.37;;;;;;;18.54;77.61;100805.59;4730305;61;1140882;-83
2021/07/19 05:07:48;;;;;;;15.58;6.60;;;;;;;18.53;77.99;100806.58;4730086;60;1139134;-81
2021/07/19 05:12:55;;;;;;;16.48;5.90;;;;;;;18.48;78.05;100810.77;4721734;61;1140985;-81
2021/07/19 05:18:01;;;;;;;15.30;6.25;;;;;;;18.44;78.43;100812.93;4717136;60;1140863;-83
2021/07/19 05:23:07;;;;;;;14.00;7.50;;;;;;;18.51;78.52;100814.44;4727926;60;1140973;-80
2021/07/19 05:28:15;;;;;;;16.57;7.05;;;;;;;18.55;78.84;100813.96;4780866;60;1140816;-79
2021/07/19 05:33:24;;;;;;;12.63;6.33;;;;;;;18.54;78.66;100810.94;4760504;60;1141064;-82
2021/07/19 05:38:30;;;;;;;13.48;6.08;;;;;;;18.58;79.22;100802.95;4751113;60;1140984;-82
2021/07/19 05:43:37;;;;;;;15.72;5.72;;;;;;;18.65;79.22;100799.10;4673001;61;1141072;-80
2021/07/19 05:48:43;;;;;;;7.50;5.10;;;;;;;18.72;79.01;100799.30;4655356;60;1141138;-79
2021/07/19 05:53:49;;;;;;;12.90;6.70;;;;;;;18.74;78.98;100802.16;4622235;60;1138952;-80
2021/07/19 05:58:55;;;;;;;16.40;5.92;;;;;;;18.77;79.22;100806.34;4691497;59;1140884;-81
2021/07/19 06:04:01;;;;;;;12.02;5.38;;;;;;;18.92;79.32;100804.20;4672221;59;1140857;-85
2021/07/19 06:09:07;;;;;;;20.45;5.62;;;;;;;19.08;79.31;100811.91;4692186;60;1140680;-84
2021/07/19 06:14:12;;;;;;;10.75;5.70;;;;;;;19.23;78.77;100812.92;4684961;61;1140844;-82
2021/07/19 06:19:18;;;;;;;10.72;4.70;;;;;;;19.28;78.26;100812.73;4682802;60;1140881;-80
2021/07/19 06:24:24;;;;;;;11.65;4.90;;;;;;;19.32;77.96;100815.92;4683443;59;1140913;-81
2021/07/19 06:29:29;;;;;;;9.93;5.33;;;;;;;19.38;78.02;100819.28;4724833;60;1140877;-83
2021/07/19 06:34:35;;;;;;;13.40;5.70;;;;;;;19.38;77.68;100824.66;4785983;58;1138838;-81
2021/07/19 06:39:41;;;;;;;12.50;5.47;;;;;;;19.38;77.70;100825.16;4772345;60;1140830;-82
2021/07/19 06:44:47;;;;;;;13.10;5.08;;;;;;;19.36;77.33;100826.66;4742562;60;1140820;-82
2021/07/19 06:49:54;;;;;;;17.15;6.15;;;;;;;19.41;77.63;100825.62;4760628;59;1141330;-82
2021/07/19 06:55:00;;;;;;;14.28;5.37;;;;;;;19.48;77.08;100828.48;4779471;59;1141105;-82
2021/07/19 07:00:09;;;;;;;11.78;5.30;;;;;;;19.51;77.49;100826.34;4817200;60;1140913;-84
2021/07/19 07:05:15;;;;;;;10.25;4.87;;;;;;;19.66;77.66;100819.28;4815080;58;1140853;-84
2021/07/19 07:10:21;;;;;;;13.80;5.08;;;;;;;19.82;77.32;100822.94;4759882;60;1140862;-82
2021/07/19 07:15:26;;;;;;;8.10;5.12;;;;;;;19.89;77.06;100826.59;4821374;59;1140874;-82
2021/07/19 07:20:32;;;;;;;12.65;5.47;;;;;;;19.91;76.42;100820.55;4813875;59;1138760;-80
2021/07/19 07:25:38;;;;;;;11.80;5.00;;;;;;;20.03;76.84;100811.11;4804932;59;1168338;-82
2021/07/19 07:30:44;;;;;;;10.58;4.62;;;;;;;20.21;76.06;100814.91;4802568;60;1140872;-81
2021/07/19 07:35:51;;;;;;;13.22;4.67;;;;;;;20.19;75.21;100817.77;4817320;60;1140815;-81
2021/07/19 07:40:58;;;;;;;17.32;4.17;;;;;;;20.11;75.16;100811.61;4817223;60;1140849;-81
2021/07/19 07:46:04;;;;;;;13.18;4.55;;;;;;;20.26;75.81;100807.18;4817229;60;1140832;-84
2021/07/19 07:51:11;;;;;;;17.78;4.82;;;;;;;20.44;75.00;100809.65;4816170;59;1140838;-83
2021/07/19 07:56:17;;;;;;;11.65;4.08;;;;;;;20.35;73.82;100804.77;4779543;59;1141078;-83
2021/07/19 08:01:23;;;;;;;13.32;3.67;;;;;;;20.37;74.30;100805.47;4749633;60;1140788;-82
2021/07/19 08:06:29;;;;;;;15.05;4.10;;;;;;;20.38;72.84;100807.65;4749220;60;1140878;-83
2021/07/19 08:11:35;;;;;;;13.85;3.20;;;;;;;20.27;72.32;100810.20;4720903;60;1140938;-81
2021/07/19 08:16:41;;;;;;;9.30;3.72;;;;;;;20.18;72.24;100816.59;4687125;61;1141014;-85
2021/07/19 08:21:47;;;;;;;12.23;3.77;;;;;;;20.16;72.88;100823.51;4686925;60;1138770;-82
2021/07/19 08:26:52;;;;;;;16.12;4.40;;;;;;;20.18;72.78;100814.75;4690660;60;1140878;-83
2021/07/19 08:31:58;;;;;;;11.85;4.80;;;;;;;20.20;72.95;100818.60;4693837;60;1140923;-78
2021/07/19 08:37:04;;;;;;;8.98;2.98;;;;;;;20.40;72.45;100810.50;4694086;60;1140736;-79
2021/07/19 08:42:14;;;;;;;11.65;4.65;;;;;;;20.69;72.64;100814.70;4694354;61;1138800;-78
2021/07/19 08:47:20;;;;;;;13.38;5.25;;;;;;;20.86;72.17;100801.16;4692878;60;1140666;-82
2021/07/19 08:52:25;;;;;;;13.32;3.52;;;;;;;21.18;72.28;100807.63;4694156;60;1140635;-83
2021/07/19 08:57:31;;;;;;;12.13;4.15;;;;;;;21.28;70.94;100803.37;4696128;60;1140862;-80
2021/07/19 09:02:38;;;;;;;16.02;4.37;;;;;;;21.42;70.87;100801.22;4695865;61;1140672;-82
2021/07/19 09:07:45;;;;;;;13.18;4.00;;;;;;;21.52;69.71;100793.74;4717241;60;1140802;-82
2021/07/19 09:12:51;;;;;;;15.38;3.65;;;;;;;21.56;67.83;100797.71;4809100;59;1140971;-83
2021/07/19 09:18:00;;;;;;;11.00;4.05;;;;;;;21.36;66.10;100797.42;4806091;59;1140874;-82
2021/07/19 09:23:11;;;;;;;6.50;2.95;;;;;;;21.23;65.44;100805.78;4804859;60;1141253;-81
2021/07/19 09:28:17;;;;;;;9.20;3.95;;;;;;;21.44;61.99;100793.80;4812417;60;1138588;-81
2021/07/19 09:33:22;;;;;;;7.62;3.35;;;;;;;21.29;62.49;100801.00;4781079;59;1138884;-77
2021/07/19 09:38:31;;;;;;;15.18;3.30;;;;;;;21.25;63.24;100801.03;4791135;59;1138625;-79
2021/07/19 09:43:37;;;;;;;11.57;3.58;;;;;;;21.52;63.63;100791.55;4780765;59;1141072;-76
2021/07/19 09:48:42;;;;;;;9.25;3.12;;;;;;;21.86;61.66;100798.57;4812686;60;1140793;-79
2021/07/19 09:53:48;;;;;;;10.38;2.17;;;;;;;21.96;59.50;100797.80;4806040;59;1138775;-79
2021/07/19 09:59:06;;;;;;;13.72;4.45;;;;;;;21.79;58.40;100806.25;4776053;59;1140681;-78
2021/07/19 10:04:17;;;;;;;7.20;2.62;;;;;;;21.88;60.17;100798.39;4788653;59;1140720;-78
2021/07/19 10:09:23;;;;;;;8.85;3.22;;;;;;;21.84;57.96;100803.84;4782692;59;1138674;-80
2021/07/19 10:14:40;;;;;;;9.83;2.72;;;;;;;21.98;57.86;100796.27;4807041;59;1138971;-82
2021/07/19 10:19:41;;;;;;;7.30;2.95;;;;;;;22.11;56.88;100788.40;4753653;60;1138709;-80
2021/07/19 10:24:47;;;;;;;9.82;2.72;;;;;;;21.93;55.88;100795.47;4818495;59;1138867;-82
2021/07/19 10:29:52;;;;;;;10.03;3.35;;;;;;;22.10;57.95;100788.91;4819142;59;1138857;-82
2021/07/19 10:34:58;;;;;;;12.53;2.55;;;;;;;22.18;58.25;100785.26;4810738;59;1141226;-76
2021/07/19 10:40:08;;;;;;;8.90;2.80;;;;;;;22.28;56.26;100795.77;4810082;59;1140683;-81
2021/07/19 10:45:18;;;;;;;8.65;2.55;;;;;;;22.21;56.33;100800.22;4818493;59;1138634;-82
2021/07/19 10:50:27;;;;;;;10.68;2.15;;;;;;;22.51;57.30;100791.05;4818326;59;1138845;-81
2021/07/19 10:55:35;;;;;;;9.95;2.83;;;;;;;22.34;52.76;100797.17;4817203;59;1140747;-80
2021/07/19 11:00:45;;;;;;;9.63;3.05;;;;;;;22.20;52.71;100787.77;4828151;59;1139183;-83
2021/07/19 11:05:55;;;;;;;6.00;2.55;;;;;;;22.45;52.08;100789.14;4806108;59;1139233;-83
2021/07/19 11:11:01;;;;;;;8.30;2.73;;;;;;;22.42;52.02;100786.81;4811495;59;1138826;-83
2021/07/19 11:16:16;;;;;;;10.95;2.90;;;;;;;22.30;52.21;100785.13;4814929;59;1138802;-79
2021/07/19 11:21:30;;;;;;;8.68;2.17;;;;;;;22.34;53.50;100784.21;4818489;59;1140747;-83
2021/07/19 11:26:39;;;;;;;5.72;2.27;;;;;;;22.42;51.50;100780.91;4820060;59;1138636;-78
2021/07/19 11:31:44;;;;;;;7.37;2.42;;;;;;;22.43;52.50;100783.09;4815736;59;1138741;-83
2021/07/19 11:36:50;;;;;;;3.77;1.92;;;;;;;22.59;50.92;100780.17;4819728;59;1139046;-80
2021/07/19 11:42:04;;;;;;;6.20;2.72;;;;;;;22.78;50.07;100770.12;4819617;59;1138684;-82
2021/07/19 11:47:10;;;;;;;4.03;1.87;;;;;;;23.07;51.04;100770.48;4818821;59;1138751;-80
2021/07/19 11:52:21;;;;;;;3.90;2.10;;;;;;;23.38;46.87;100760.67;4819429;59;1138740;-78
2021/07/19 11:57:27;;;;;;;6.97;3.37;;;;;;;23.39;47.95;100759.64;4805513;59;1138655;-80
2021/07/19 12:02:33;;;;;;;8.68;2.92;;;;;;;23.21;48.78;100759.32;4828770;59;1138660;-81
2021/07/19 12:07:39;;;;;;;8.30;3.10;;;;;;;23.29;50.15;100760.51;4749098;60;1138787;-78
2021/07/19 12:12:44;;;;;;;4.72;2.75;;;;;;;23.39;50.97;100756.94;4783486;59;1138910;-77
2021/07/19 12:17:54;;;;;;;3.20;2.27;;;;;;;23.40;51.47;100755.91;4829050;59;1138760;-80
2021/07/19 12:23:01;;;;;;;4.25;2.58;;;;;;;23.57;50.42;100753.78;4829283;59;1138643;-78
2021/07/19 12:28:06;;;;;;;3.12;2.58;;;;;;;23.91;47.65;100749.41;4746788;60;1138679;-79
2021/07/19 12:33:12;;;;;;;10.15;2.92;;;;;;;23.73;47.59;100748.58;4754838;60;1138758;-80
2021/07/19 12:38:19;;;;;;;5.67;2.47;;;;;;;23.77;47.42;100746.64;4755239;60;1140731;-81
2021/07/19 12:43:25;;;;;;;4.37;2.62;;;;;;;24.02;45.38;100744.77;4804507;59;1138728;-83
2021/07/19 12:48:31;;;;;;;5.85;2.77;;;;;;;24.15;44.93;100736.20;4829393;59;1138645;-85
2021/07/19 12:53:37;;;;;;;15.95;3.72;;;;;;;24.33;44.29;100737.55;4818230;59;1138806;-80
2021/07/19 12:58:56;;;;;;;6.72;3.24;;;;;;;24.42;45.30;100736.34;4771720;60;1140854;-81
2021/07/19 13:04:13;;;;;;;6.42;3.27;;;;;;;24.59;47.66;100741.69;4724115;60;1138812;-81
2021/07/19 13:09:28;;;;;;;5.45;3.70;;;;;;;24.70;48.00;100731.61;4731063;60;1138737;-81
2021/07/19 13:14:46;;;;;;;7.97;4.35;;;;;;;24.64;47.66;100732.94;4737754;60;1138742;-83
2021/07/19 13:20:04;;;;;;;7.10;3.90;;;;;;;24.54;47.41;100729.30;4739803;60;1138720;-80
2021/07/19 13:25:31;;;;;;;6.33;4.35;;;;;;;24.57;48.69;100726.70;4740545;60;1138719;-82
2021/07/19 13:30:34;;;;;;;8.60;4.65;;;;;;;24.44;47.18;100725.61;4733881;60;1138854;-81
2021/07/19 13:35:45;;;;;;;7.55;3.98;;;;;;;24.38;48.85;100725.09;4741650;60;1138741;-84
2021/07/19 13:40:54;;;;;;;6.13;3.90;;;;;;;24.38;47.58;100721.04;4737637;60;1148330;-81
2021/07/19 13:46:00;;;;;;;5.25;3.12;;;;;;;24.38;47.47;100716.98;4726988;59;1138661;-82
2021/07/19 13:51:06;;;;;;;4.92;3.50;;;;;;;24.12;46.90;100719.06;4734415;59;1138724;-83
2021/07/19 13:56:12;;;;;;;7.45;4.78;;;;;;;23.97;47.51;100715.68;4733561;59;1138648;-83
2021/07/19 14:01:17;;;;;;;8.95;5.30;;;;;;;23.93;47.77;100718.46;4727640;59;1138647;-80
2021/07/19 14:06:23;;;;;;;5.90;3.55;;;;;;;23.86;48.57;100714.87;4767126;58;1138623;-81
2021/07/19 14:11:28;;;;;;;4.78;3.95;;;;;;;23.83;48.63;100723.41;4766340;59;1138892;-82
2021/07/19 14:16:35;;;;;;;8.00;4.37;;;;;;;23.91;49.21;100725.09;4765357;59;1138746;-80
2021/07/19 14:21:41;;;;;;;8.90;5.28;;;;;;;23.98;49.49;100721.92;4752628;59;1138832;-81
2021/07/19 14:26:47;;;;;;;8.68;5.12;;;;;;;24.03;49.74;100722.96;4737154;59;1139146;-81
2021/07/19 14:31:53;;;;;;;9.53;5.10;;;;;;;24.04;50.75;100727.33;4756157;60;1138990;-79
2021/07/19 14:36:58;;;;;;;10.28;5.85;;;;;;;23.88;50.31;100723.62;4760110;59;1138957;-81
2021/07/19 14:42:04;;;;;;;7.45;5.75;;;;;;;23.81;51.39;100724.95;4726500;58;1140959;-80
2021/07/19 14:47:10;;;;;;;7.22;6.12;;;;;;;24.15;52.04;100726.74;4727192;60;1138871;-80
2021/07/19 14:52:15;;;;;;;7.25;6.03;;;;;;;24.18;51.81;100723.64;4761134;59;1138944;-81
2021/07/19 14:57:21;;;;;;;9.85;6.08;;;;;;;24.25;51.29;100726.93;4758033;59;1139027;-81
2021/07/19 15:02:26;;;;;;;10.60;6.58;;;;;;;24.04;51.48;100725.98;4759914;59;1138988;-81
2021/07/19 15:07:32;;;;;;;14.75;6.12;;;;;;;23.69;51.85;100724.34;4758301;59;1140842;-81
2021/07/19 15:12:38;;;;;;;14.95;6.53;;;;;;;23.69;53.15;100732.45;4757094;59;1141053;-82
2021/07/19 15:17:44;;;;;;;11.35;6.42;;;;;;;23.69;53.01;100727.88;4757909;60;1140840;-79
2021/07/19 15:22:50;;;;;;;7.47;5.72;;;;;;;23.57;53.20;100728.64;4759480;60;1140934;-84
2021/07/19 15:27:55;;;;;;;7.15;5.58;;;;;;;23.52;53.76;100734.66;4759024;60;1138930;-80
2021/07/19 15:33:01;;;;;;;7.90;6.15;;;;;;;23.63;54.32;100729.21;4792670;59;1138853;-82
2021/07/19 15:38:07;;;;;;;7.05;5.20;;;;;;;23.73;54.21;100733.20;4807009;59;1138870;-80
2021/07/19 15:43:13;;;;;;;9.75;6.97;;;;;;;23.64;53.59;100729.02;4807649;59;1138817;-81
2021/07/19 15:48:19;;;;;;;14.20;6.40;;;;;;;23.39;54.16;100729.11;4807249;59;1138983;-82
2021/07/19 15:53:25;;;;;;;10.28;6.75;;;;;;;23.29;55.06;100730.82;4807261;59;1141149;-81
2021/07/19 15:58:31;;;;;;;10.53;6.08;;;;;;;23.31;55.29;100727.41;4807275;59;1140850;-80
2021/07/19 16:03:36;;;;;;;10.20;5.62;;;;;;;23.35;55.19;100734.09;4807209;59;1140906;-79
2021/07/19 16:08:43;;;;;;;8.65;5.40;;;;;;;23.35;54.72;100728.70;4814827;59;1141013;-79
2021/07/19 16:13:49;;;;;;;8.73;5.58;;;;;;;23.21;54.94;100724.75;4752641;59;1138949;-81
2021/07/19 16:18:54;;;;;;;8.80;4.83;;;;;;;23.10;55.39;100725.58;4747909;59;1138832;-81
2021/07/19 16:24:00;;;;;;;19.20;5.55;;;;;;;23.02;55.71;100724.91;4746751;60;1138792;-82
2021/07/19 16:29:06;;;;;;;7.45;4.83;;;;;;;23.05;55.42;100724.52;4746110;60;1140978;-81
2021/07/19 16:34:12;;;;;;;9.73;5.25;;;;;;;23.26;56.00;100717.72;4747483;60;1139036;-81
2021/07/19 16:39:18;;;;;;;7.50;4.75;;;;;;;23.42;55.10;100730.08;4747523;59;1138959;-80
2021/07/19 16:44:24;;;;;;;8.63;4.50;;;;;;;23.35;55.02;100731.91;4747420;60;1138758;-81
2021/07/19 16:49:29;;;;;;;9.45;4.35;;;;;;;23.20;54.90;100731.17;4747585;60;1138776;-79
2021/07/19 16:54:36;;;;;;;4.10;3.70;;;;;;;23.10;55.00;100736.89;4747891;60;1138933;-83
2021/07/19 16:59:41;;;;;;;8.65;4.10;;;;;;;22.93;54.59;100732.80;4747302;60;1138905;-77
2021/07/19 17:04:49;;;;;;;6.42;3.90;;;;;;;22.67;54.66;100737.41;4763887;60;1138986;-83
2021/07/19 17:09:54;;;;;;;10.03;4.92;;;;;;;22.59;55.12;100741.59;4747523;59;1138723;-82
2021/07/19 17:15:00;;;;;;;13.48;4.60;;;;;;;22.44;55.27;100743.83;4748092;59;1140867;-82
2021/07/19 17:20:08;;;;;;;39.27;12.13;;;;;;;22.35;55.74;100744.95;4748028;59;1141016;-79
2021/07/19 17:25:18;;;;;;;21.70;8.50;;;;;;;22.35;56.34;100741.42;4747705;59;1143140;-82
2021/07/19 17:30:28;;;;;;;15.02;4.12;;;;;;;22.27;56.39;100747.77;4748309;58;1140896;-81
2021/07/19 17:35:34;;;;;;;7.30;3.98;;;;;;;22.19;56.58;100749.21;4747951;59;1140813;-79
2021/07/19 17:40:41;;;;;;;7.85;3.42;;;;;;;22.07;56.65;100747.52;4748224;59;1138733;-81
2021/07/19 17:45:48;;;;;;;5.50;3.58;;;;;;;22.03;56.92;100753.46;4750298;59;1138873;-79
2021/07/19 17:50:54;;;;;;;6.10;3.35;;;;;;;21.99;57.04;100753.51;4752701;59;1138810;-77
2021/07/19 17:55:59;;;;;;;4.05;3.08;;;;;;;21.95;56.93;100756.23;4755209;59;1138846;-78
2021/07/19 18:01:05;;;;;;;4.12;3.37;;;;;;;21.81;56.94;100758.44;4751961;60;1138993;-76
2021/07/19 18:06:11;;;;;;;3.55;2.67;;;;;;;21.70;57.42;100753.81;4752814;60;1138860;-79
2021/07/19 18:11:17;;;;;;;10.00;3.90;;;;;;;21.64;57.53;100753.73;4759665;60;1138757;-77
2021/07/19 18:16:24;;;;;;;10.20;3.02;;;;;;;21.57;57.63;100749.59;4761092;59;1140927;-77
2021/07/19 18:21:38;;;;;;;8.90;3.30;;;;;;;21.50;57.82;100750.02;4760641;59;1140863;-79
2021/07/19 18:31:55;;;;;;;7.48;4.60;;;;;;;21.50;58.54;100752.71;4734563;59;1140850;-77
2021/07/19 18:37:01;;;;;;;6.03;4.45;;;;;;;21.52;58.55;100760.09;4755925;59;1138795;-79
2021/07/19 18:42:07;;;;;;;9.55;4.97;;;;;;;21.55;58.36;100762.39;4751989;60;1138797;-78
2021/07/19 18:47:14;;;;;;;9.28;6.55;;;;;;;21.50;58.31;100771.55;4752752;60;1139227;-78
2021/07/19 18:52:19;;;;;;;9.10;5.37;;;;;;;21.35;58.57;100771.53;4754796;60;1138829;-75
2021/07/19 18:57:25;;;;;;;10.70;4.97;;;;;;;21.26;58.80;100775.30;4761187;59;1139093;-78
2021/07/19 19:02:31;;;;;;;11.00;5.55;;;;;;;21.18;59.07;100777.20;4764661;59;1140937;-77
2021/07/19 19:07:38;;;;;;;8.85;4.28;;;;;;;21.14;59.17;100791.52;4761628;60;1140877;-80
2021/07/19 19:12:45;;;;;;;8.58;4.25;;;;;;;21.05;59.28;100785.38;4766618;59;1138678;-78
2021/07/19 19:17:55;;;;;;;6.20;3.92;;;;;;;20.99;59.67;100784.75;4766325;60;1138823;-78
2021/07/19 19:23:01;;;;;;;7.30;4.10;;;;;;;20.93;59.82;100787.34;4762918;59;1138829;-77
2021/07/19 19:28:09;;;;;;;9.90;4.05;;;;;;;20.91;60.12;100790.71;4762716;61;1138619;-78
2021/07/19 19:33:17;;;;;;;5.75;4.03;;;;;;;20.81;60.21;100793.61;4766745;59;1138658;-76
2021/07/19 19:38:28;;;;;;;8.58;4.55;;;;;;;20.79;60.50;100802.36;4766809;59;1138666;-80
2021/07/19 19:43:36;;;;;;;8.18;3.87;;;;;;;20.74;60.61;100801.24;4767752;59;1138878;-80
2021/07/19 19:48:42;;;;;;;7.50;4.50;;;;;;;20.66;60.93;100801.61;4766720;59;1138617;-77
2021/07/19 19:53:47;;;;;;;6.45;4.00;;;;;;;20.58;61.20;100803.52;4766636;59;1138647;-77
2021/07/19 19:58:55;;;;;;;6.78;4.28;;;;;;;20.54;61.41;100811.09;4741961;59;1138763;-77
2021/07/19 20:04:01;;;;;;;6.87;3.35;;;;;;;20.52;61.73;100823.03;4764311;59;1138906;-76
2021/07/19 20:09:07;;;;;;;8.00;4.10;;;;;;;20.53;61.82;100819.33;4761847;59;1138900;-81
2021/07/19 20:14:13;;;;;;;4.80;3.55;;;;;;;20.50;61.77;100819.17;4725680;59;1138772;-78
2021/07/19 20:19:18;;;;;;;5.90;4.78;;;;;;;20.42;61.82;100823.76;4764086;60;1138835;-78
2021/07/19 20:24:24;;;;;;;8.60;5.76;;;;;;;20.28;62.00;100819.93;4762089;60;1138535;-79
2021/07/19 20:29:30;;;;;;;11.03;5.78;;;;;;;20.19;62.42;100820.95;4759732;60;1138841;-81
2021/07/19 20:34:37;;;;;;;7.55;5.45;;;;;;;20.16;62.51;100828.05;4681036;61;1140911;-80
2021/07/19 20:39:42;;;;;;;7.37;4.65;;;;;;;20.13;62.56;100824.36;4755880;60;1138780;-79
2021/07/19 20:44:48;;;;;;;5.50;4.05;;;;;;;20.01;62.53;100817.19;4756492;60;1138927;-78
2021/07/19 20:49:54;;;;;;;5.35;4.22;;;;;;;19.91;62.73;100813.84;4754713;60;1138868;-81
2021/07/19 20:54:59;;;;;;;6.47;4.55;;;;;;;19.90;63.04;100807.63;4752220;60;1138813;-78
2021/07/19 21:00:07;;;;;;;7.35;4.30;;;;;;;19.90;63.02;100813.51;4755139;60;1138768;-81
2021/07/19 21:05:14;;;;;;;5.10;3.83;;;;;;;19.89;62.98;100826.09;4755325;60;1138931;-79
2021/07/19 21:10:20;;;;;;;8.58;4.30;;;;;;;19.96;63.36;100827.59;4755319;60;1138755;-78
2021/07/19 21:15:26;;;;;;;8.18;4.03;;;;;;;19.97;63.02;100830.11;4783146;58;1138941;-82
2021/07/19 21:20:32;;;;;;;5.55;3.80;;;;;;;20.08;63.39;100842.32;4832445;59;1138673;-78
2021/07/19 21:25:37;;;;;;;13.43;6.30;;;;;;;20.16;63.08;100844.16;4831078;59;1138594;-79
2021/07/19 21:30:43;;;;;;;11.12;5.37;;;;;;;20.16;63.02;100852.22;4822438;59;1140817;-81
2021/07/19 21:35:49;;;;;;;10.50;4.87;;;;;;;20.09;62.80;100853.39;4822614;59;1140842;-79
2021/07/19 21:40:55;;;;;;;10.02;4.20;;;;;;;19.98;63.02;100854.61;4822580;59;1140971;-77
2021/07/19 21:46:01;;;;;;;6.08;4.37;;;;;;;19.92;63.12;100843.20;4822636;59;1140843;-81
2021/07/19 21:51:07;;;;;;;8.78;3.95;;;;;;;19.82;63.36;100844.41;4822818;59;1139139;-79
2021/07/19 21:56:13;;;;;;;9.93;3.80;;;;;;;19.69;63.32;100842.26;4824198;59;1138686;-82
2021/07/19 22:01:18;;;;;;;9.43;4.42;;;;;;;19.58;63.55;100841.25;4822743;59;1138863;-77
2021/07/19 22:06:24;;;;;;;8.30;4.05;;;;;;;19.39;63.80;100838.40;4822591;58;1138833;-79
2021/07/19 22:11:30;;;;;;;4.92;3.72;;;;;;;19.32;64.34;100836.04;4822854;59;1138840;-78
2021/07/19 22:16:36;;;;;;;10.98;4.25;;;;;;;19.32;64.60;100834.70;4844259;58;1139079;-77
2021/07/19 22:21:43;;;;;;;8.50;3.77;;;;;;;19.25;64.62;100836.36;4913448;58;1140862;-79
2021/07/19 22:26:50;;;;;;;5.74;4.50;;;;;;;19.33;64.95;100836.38;4913495;58;1138690;-80
2021/07/19 22:31:57;;;;;;;4.12;3.50;;;;;;;19.43;65.27;100833.52;4913601;58;1138729;-80
2021/07/19 22:37:03;;;;;;;7.87;3.83;;;;;;;19.37;64.62;100829.68;4913617;58;1138727;-83
2021/07/19 22:42:09;;;;;;;6.97;3.77;;;;;;;19.21;64.57;100834.54;4913715;58;1138640;-80
2021/07/19 22:47:17;;;;;;;6.00;3.72;;;;;;;19.12;64.75;100832.84;4913407;58;1138775;-79
2021/07/19 22:52:22;;;;;;;5.80;3.75;;;;;;;19.07;64.93;100837.88;4882332;58;1138830;-82
2021/07/19 22:57:28;;;;;;;5.90;4.00;;;;;;;19.07;65.15;100833.86;4735386;59;1138826;-82
2021/07/19 23:02:34;;;;;;;6.42;3.60;;;;;;;19.06;65.25;100838.89;4769227;60;1138662;-78
2021/07/19 23:07:40;;;;;;;3.87;3.50;;;;;;;19.03;65.07;100837.03;4686708;60;1138964;-83
2021/07/19 23:12:45;;;;;;;4.37;3.52;;;;;;;18.92;65.22;100830.16;4813169;59;1138808;-81